THY9634 LTAC-LTCD
Flight info
| Callsign | THY9634 |
|---|---|
| Flight time | 1h 4m |
| Altitude | 35000 |
| Route | BENTA UA4 EZN |
| Aircraft | B738/M-SDE2E3FGHIRWXY/LB1 |
Departure
| Time | 2026-05-05 20:14 |
|---|---|
| Airport | Esenboğa International Airport (LTAC) |
Arrival
| Time | 2026-05-05 21:18 |
|---|---|
| Airport | Erzincan Airport (LTCD) |
| Time | Latitude | Longitude | Altitude | Speed | Heading |
|---|---|---|---|---|---|
| 2026-05-05 19:52 | 40.11493 | 32.98949 | 3125 ft | 0 kts | 130° |
| 2026-05-05 20:06 | 40.11500 | 32.98939 | 3126 ft | 2 kts | 130° |
| 2026-05-05 20:06 | 40.11510 | 32.98924 | 3125 ft | 2 kts | 131° |
| 2026-05-05 20:07 | 40.11519 | 32.98909 | 3125 ft | 2 kts | 130° |
| 2026-05-05 20:07 | 40.11526 | 32.98900 | 3125 ft | 2 kts | 127° |
| 2026-05-05 20:07 | 40.11530 | 32.98882 | 3125 ft | 2 kts | 84° |
| 2026-05-05 20:07 | 40.11525 | 32.98864 | 3124 ft | 1 kts | 48° |
| 2026-05-05 20:08 | 40.11520 | 32.98858 | 3124 ft | 1 kts | 34° |
| 2026-05-05 20:08 | 40.11517 | 32.98855 | 3124 ft | 0 kts | 38° |
| 2026-05-05 20:10 | 40.11523 | 32.98862 | 3124 ft | 2 kts | 39° |
| 2026-05-05 20:11 | 40.11535 | 32.98875 | 3124 ft | 4 kts | 40° |
| 2026-05-05 20:11 | 40.11573 | 32.98923 | 3126 ft | 10 kts | 47° |
| 2026-05-05 20:11 | 40.11639 | 32.98927 | 3127 ft | 9 kts | 315° |
| 2026-05-05 20:11 | 40.11628 | 32.98830 | 3124 ft | 14 kts | 219° |
| 2026-05-05 20:12 | 40.11546 | 32.98750 | 3122 ft | 15 kts | 214° |
| 2026-05-05 20:12 | 40.11456 | 32.98671 | 3120 ft | 15 kts | 219° |
| 2026-05-05 20:12 | 40.11375 | 32.98573 | 3118 ft | 15 kts | 238° |
| 2026-05-05 20:12 | 40.11356 | 32.98444 | 3117 ft | 13 kts | 285° |
| 2026-05-05 20:13 | 40.11407 | 32.98356 | 3118 ft | 10 kts | 335° |
| 2026-05-05 20:13 | 40.11465 | 32.98373 | 3118 ft | 8 kts | 34° |
| 2026-05-05 20:13 | 40.11512 | 32.98416 | 3118 ft | 9 kts | 35° |
| 2026-05-05 20:13 | 40.11769 | 32.98661 | 3121 ft | 84 kts | 35° |
| 2026-05-05 20:14 | 40.12437 | 32.99290 | 3127 ft | 151 kts | 37° |
| 2026-05-05 20:14 | 40.13402 | 33.00221 | 3397 ft | 183 kts | 37° |
| 2026-05-05 20:14 | 40.14452 | 33.01153 | 4173 ft | 188 kts | 26° |
| 2026-05-05 20:14 | 40.15627 | 33.01911 | 4931 ft | 192 kts | 20° |
| 2026-05-05 20:15 | 40.16867 | 33.02592 | 5516 ft | 199 kts | 20° |
| 2026-05-05 20:15 | 40.18187 | 33.03173 | 6056 ft | 210 kts | 11° |
| 2026-05-05 20:15 | 40.19587 | 33.03896 | 6504 ft | 225 kts | 28° |
| 2026-05-05 20:15 | 40.21060 | 33.04735 | 6963 ft | 240 kts | 6° |
| 2026-05-05 20:16 | 40.22718 | 33.04363 | 7437 ft | 255 kts | 328° |
| 2026-05-05 20:16 | 40.23876 | 33.02655 | 8280 ft | 258 kts | 291° |
| 2026-05-05 20:16 | 40.24096 | 33.00328 | 9001 ft | 265 kts | 260° |
| 2026-05-05 20:16 | 40.23521 | 32.98043 | 9724 ft | 270 kts | 239° |
| 2026-05-05 20:17 | 40.22372 | 32.96167 | 10502 ft | 270 kts | 219° |
| 2026-05-05 20:17 | 40.20797 | 32.94790 | 11219 ft | 275 kts | 202° |
| 2026-05-05 20:17 | 40.19002 | 32.94029 | 11988 ft | 275 kts | 193° |
| 2026-05-05 20:17 | 40.17117 | 32.93480 | 12632 ft | 282 kts | 192° |
| 2026-05-05 20:18 | 40.15190 | 32.92918 | 13363 ft | 285 kts | 193° |
| 2026-05-05 20:18 | 40.13265 | 32.92301 | 14041 ft | 288 kts | 194° |
| 2026-05-05 20:18 | 40.11301 | 32.91684 | 14711 ft | 293 kts | 191° |
| 2026-05-05 20:18 | 40.09284 | 32.91477 | 15321 ft | 299 kts | 174° |
| 2026-05-05 20:19 | 40.07257 | 32.92221 | 15958 ft | 304 kts | 153° |
| 2026-05-05 20:19 | 40.05516 | 32.93735 | 16536 ft | 309 kts | 138° |
| 2026-05-05 20:19 | 40.03992 | 32.95763 | 16961 ft | 319 kts | 125° |
| 2026-05-05 20:19 | 40.02954 | 32.98354 | 17263 ft | 330 kts | 103° |
| 2026-05-05 20:20 | 40.02682 | 33.01356 | 17550 ft | 339 kts | 83° |
| 2026-05-05 20:20 | 40.02972 | 33.04465 | 17858 ft | 351 kts | 77° |
| 2026-05-05 20:20 | 40.03406 | 33.07645 | 18140 ft | 366 kts | 75° |
| 2026-05-05 20:20 | 40.03893 | 33.10951 | 18501 ft | 378 kts | 75° |
| 2026-05-05 20:21 | 40.04401 | 33.14374 | 18749 ft | 393 kts | 75° |
| 2026-05-05 20:21 | 40.04910 | 33.17896 | 19415 ft | 396 kts | 76° |
| 2026-05-05 20:21 | 40.05413 | 33.21443 | 20065 ft | 399 kts | 76° |
| 2026-05-05 20:21 | 40.05915 | 33.25013 | 20659 ft | 404 kts | 75° |
| 2026-05-05 20:22 | 40.06413 | 33.28592 | 21272 ft | 407 kts | 75° |
| 2026-05-05 20:22 | 40.06911 | 33.32226 | 21883 ft | 410 kts | 75° |
| 2026-05-05 20:22 | 40.07413 | 33.35902 | 22454 ft | 414 kts | 75° |
| 2026-05-05 20:22 | 40.07920 | 33.39610 | 23033 ft | 417 kts | 75° |
| 2026-05-05 20:23 | 40.08429 | 33.43351 | 23593 ft | 420 kts | 75° |
| 2026-05-05 20:23 | 40.08931 | 33.47077 | 24155 ft | 423 kts | 75° |
| 2026-05-05 20:23 | 40.09442 | 33.50869 | 24676 ft | 427 kts | 75° |
| 2026-05-05 20:23 | 40.09956 | 33.54695 | 25149 ft | 432 kts | 74° |
| 2026-05-05 20:24 | 40.10477 | 33.58569 | 25750 ft | 433 kts | 75° |
| 2026-05-05 20:24 | 40.10992 | 33.62440 | 26242 ft | 436 kts | 75° |
| 2026-05-05 20:24 | 40.11509 | 33.66370 | 26640 ft | 441 kts | 75° |
| 2026-05-05 20:24 | 40.12025 | 33.70322 | 27154 ft | 444 kts | 75° |
| 2026-05-05 20:25 | 40.12545 | 33.74298 | 27592 ft | 447 kts | 75° |
| 2026-05-05 20:25 | 40.13067 | 33.78281 | 28049 ft | 450 kts | 75° |
| 2026-05-05 20:25 | 40.13586 | 33.82305 | 28472 ft | 453 kts | 75° |
| 2026-05-05 20:25 | 40.14109 | 33.86350 | 28892 ft | 456 kts | 75° |
| 2026-05-05 20:26 | 40.14606 | 33.90477 | 29264 ft | 462 kts | 78° |
| 2026-05-05 20:26 | 40.14808 | 33.94662 | 29731 ft | 467 kts | 84° |
| 2026-05-05 20:26 | 40.14698 | 33.98890 | 30417 ft | 466 kts | 89° |
| 2026-05-05 20:26 | 40.14408 | 34.03106 | 30916 ft | 467 kts | 91° |
| 2026-05-05 20:27 | 40.14015 | 34.07305 | 31320 ft | 467 kts | 92° |
| 2026-05-05 20:27 | 40.13567 | 34.11600 | 31694 ft | 466 kts | 94° |
| 2026-05-05 20:27 | 40.13111 | 34.15802 | 32088 ft | 464 kts | 94° |
| 2026-05-05 20:27 | 40.12649 | 34.19958 | 32410 ft | 463 kts | 94° |
| 2026-05-05 20:28 | 40.12180 | 34.24149 | 32637 ft | 465 kts | 94° |
| 2026-05-05 20:28 | 40.11709 | 34.28342 | 33010 ft | 462 kts | 95° |
| 2026-05-05 20:28 | 40.11242 | 34.32503 | 33289 ft | 463 kts | 95° |
| 2026-05-05 20:28 | 40.10779 | 34.36639 | 33550 ft | 464 kts | 95° |
| 2026-05-05 20:29 | 40.10307 | 34.40866 | 33826 ft | 464 kts | 95° |
| 2026-05-05 20:29 | 40.09846 | 34.45041 | 34152 ft | 464 kts | 95° |
| 2026-05-05 20:29 | 40.09390 | 34.49162 | 34500 ft | 462 kts | 95° |
| 2026-05-05 20:29 | 40.08925 | 34.53292 | 34845 ft | 461 kts | 96° |
| 2026-05-05 20:30 | 40.08458 | 34.57426 | 34967 ft | 463 kts | 96° |
| 2026-05-05 20:30 | 40.07507 | 34.65815 | 35003 ft | 464 kts | 96° |
| 2026-05-05 20:31 | 40.06552 | 34.74131 | 35007 ft | 461 kts | 96° |
| 2026-05-05 20:31 | 40.05594 | 34.82436 | 35009 ft | 462 kts | 96° |
| 2026-05-05 20:32 | 40.04623 | 34.90763 | 35013 ft | 462 kts | 97° |
| 2026-05-05 20:32 | 40.03654 | 34.99009 | 35008 ft | 461 kts | 97° |
| 2026-05-05 20:33 | 40.02690 | 35.07243 | 35017 ft | 459 kts | 97° |
| 2026-05-05 20:33 | 40.01727 | 35.15430 | 35020 ft | 460 kts | 97° |
| 2026-05-05 20:34 | 40.00751 | 35.23676 | 35017 ft | 461 kts | 97° |
| 2026-05-05 20:34 | 39.99772 | 35.31898 | 35010 ft | 461 kts | 97° |
| 2026-05-05 20:35 | 39.98779 | 35.40094 | 35016 ft | 462 kts | 97° |
| 2026-05-05 20:35 | 39.97739 | 35.48363 | 35025 ft | 461 kts | 98° |
| 2026-05-05 20:36 | 39.96692 | 35.56565 | 35019 ft | 461 kts | 98° |
| 2026-05-05 20:36 | 39.95647 | 35.64755 | 35014 ft | 459 kts | 98° |
| 2026-05-05 20:37 | 39.94595 | 35.72936 | 35023 ft | 460 kts | 98° |
| 2026-05-05 20:37 | 39.93534 | 35.81147 | 35015 ft | 460 kts | 99° |
| 2026-05-05 20:38 | 39.92477 | 35.89286 | 35008 ft | 459 kts | 99° |
| 2026-05-05 20:38 | 39.91404 | 35.97507 | 35012 ft | 461 kts | 99° |
| 2026-05-05 20:39 | 39.90321 | 36.05720 | 35004 ft | 461 kts | 99° |
| 2026-05-05 20:39 | 39.89239 | 36.13876 | 35005 ft | 459 kts | 99° |
| 2026-05-05 20:40 | 39.88148 | 36.22057 | 35007 ft | 459 kts | 99° |
| 2026-05-05 20:40 | 39.87047 | 36.30224 | 35007 ft | 459 kts | 100° |
| 2026-05-05 20:41 | 39.85867 | 36.38376 | 35004 ft | 459 kts | 100° |
| 2026-05-05 20:41 | 39.84738 | 36.46540 | 35005 ft | 460 kts | 99° |
| 2026-05-05 20:42 | 39.83654 | 36.54667 | 35003 ft | 459 kts | 99° |
| 2026-05-05 20:42 | 39.82555 | 36.62870 | 35002 ft | 461 kts | 99° |
| 2026-05-05 20:43 | 39.81449 | 36.71046 | 35004 ft | 460 kts | 100° |
| 2026-05-05 20:43 | 39.80338 | 36.79217 | 35004 ft | 459 kts | 100° |
| 2026-05-05 20:44 | 39.79359 | 36.87329 | 35007 ft | 459 kts | 96° |
| 2026-05-05 20:44 | 39.79299 | 36.95644 | 35007 ft | 458 kts | 86° |
| 2026-05-05 20:45 | 39.80301 | 37.07930 | 35002 ft | 458 kts | 83° |
| 2026-05-05 20:45 | 39.81063 | 37.16148 | 35002 ft | 459 kts | 83° |
| 2026-05-05 20:46 | 39.81780 | 37.24347 | 35000 ft | 458 kts | 84° |
| 2026-05-05 20:46 | 39.82431 | 37.32196 | 34997 ft | 458 kts | 84° |
| 2026-05-05 20:47 | 39.83090 | 37.40404 | 34989 ft | 459 kts | 84° |
| 2026-05-05 20:47 | 39.83740 | 37.48687 | 34984 ft | 458 kts | 84° |
| 2026-05-05 20:48 | 39.84368 | 37.56876 | 34982 ft | 457 kts | 84° |
| 2026-05-05 20:48 | 39.84988 | 37.65085 | 34984 ft | 456 kts | 85° |
| 2026-05-05 20:49 | 39.85601 | 37.73273 | 34989 ft | 457 kts | 85° |
| 2026-05-05 20:49 | 39.86208 | 37.81434 | 34983 ft | 456 kts | 85° |
| 2026-05-05 20:50 | 39.86813 | 37.89650 | 34970 ft | 456 kts | 85° |
| 2026-05-05 20:50 | 39.87413 | 37.97868 | 34953 ft | 457 kts | 85° |
| 2026-05-05 20:51 | 39.88010 | 38.06067 | 34942 ft | 456 kts | 85° |
| 2026-05-05 20:51 | 39.88602 | 38.14223 | 34946 ft | 457 kts | 85° |
| 2026-05-05 20:52 | 39.89193 | 38.22432 | 34951 ft | 455 kts | 85° |
| 2026-05-05 20:52 | 39.89777 | 38.30622 | 34883 ft | 456 kts | 85° |
| 2026-05-05 20:53 | 39.90065 | 38.34694 | 34644 ft | 456 kts | 85° |
| 2026-05-05 20:53 | 39.90352 | 38.38783 | 34136 ft | 456 kts | 85° |
| 2026-05-05 20:53 | 39.90641 | 38.42907 | 33593 ft | 455 kts | 85° |
| 2026-05-05 20:53 | 39.90923 | 38.46958 | 33154 ft | 455 kts | 86° |
| 2026-05-05 20:54 | 39.91205 | 38.51040 | 32769 ft | 452 kts | 86° |
| 2026-05-05 20:54 | 39.91483 | 38.55061 | 32678 ft | 439 kts | 86° |
| 2026-05-05 20:54 | 39.91750 | 38.58931 | 32602 ft | 427 kts | 86° |
| 2026-05-05 20:54 | 39.92013 | 38.62775 | 32347 ft | 424 kts | 86° |
| 2026-05-05 20:55 | 39.92269 | 38.66562 | 32161 ft | 418 kts | 87° |
| 2026-05-05 20:55 | 39.92520 | 38.70286 | 31886 ft | 415 kts | 88° |
| 2026-05-05 20:55 | 39.92768 | 38.74001 | 31659 ft | 410 kts | 88° |
| 2026-05-05 20:55 | 39.93012 | 38.77654 | 31389 ft | 407 kts | 88° |
| 2026-05-05 20:56 | 39.93256 | 38.81318 | 31191 ft | 400 kts | 88° |
| 2026-05-05 20:56 | 39.93411 | 38.84889 | 30671 ft | 395 kts | 93° |
| 2026-05-05 20:56 | 39.93220 | 38.88383 | 30211 ft | 388 kts | 102° |
| 2026-05-05 20:56 | 39.92563 | 38.91790 | 29740 ft | 381 kts | 111° |
| 2026-05-05 20:57 | 39.91263 | 38.96019 | 28989 ft | 378 kts | 115° |
| 2026-05-05 20:57 | 39.90557 | 38.98049 | 28639 ft | 376 kts | 116° |
| 2026-05-05 20:57 | 39.89457 | 39.01107 | 28082 ft | 374 kts | 116° |
| 2026-05-05 20:57 | 39.88335 | 39.04188 | 27478 ft | 373 kts | 117° |
| 2026-05-05 20:58 | 39.87230 | 39.07226 | 26887 ft | 372 kts | 117° |
| 2026-05-05 20:58 | 39.86134 | 39.10232 | 26347 ft | 370 kts | 116° |
| 2026-05-05 20:58 | 39.85054 | 39.13227 | 25875 ft | 366 kts | 116° |
| 2026-05-05 20:58 | 39.83984 | 39.16209 | 25361 ft | 364 kts | 116° |
| 2026-05-05 20:59 | 39.82921 | 39.19176 | 24823 ft | 362 kts | 115° |
| 2026-05-05 20:59 | 39.81856 | 39.22153 | 24313 ft | 359 kts | 115° |
| 2026-05-05 20:59 | 39.80813 | 39.25074 | 23755 ft | 358 kts | 115° |
| 2026-05-05 20:59 | 39.79767 | 39.28001 | 23307 ft | 354 kts | 115° |
| 2026-05-05 21:00 | 39.78739 | 39.30873 | 22842 ft | 351 kts | 115° |
| 2026-05-05 21:00 | 39.77712 | 39.33747 | 22341 ft | 349 kts | 115° |
| 2026-05-05 21:00 | 39.76722 | 39.36574 | 21846 ft | 347 kts | 111° |
| 2026-05-05 21:00 | 39.76242 | 39.39597 | 21684 ft | 339 kts | 90° |
| 2026-05-05 21:01 | 39.76663 | 39.42614 | 21698 ft | 343 kts | 70° |
| 2026-05-05 21:01 | 39.77844 | 39.45340 | 21713 ft | 354 kts | 53° |
| 2026-05-05 21:01 | 39.79523 | 39.47670 | 21684 ft | 357 kts | 43° |
| 2026-05-05 21:01 | 39.81553 | 39.49473 | 21388 ft | 355 kts | 26° |
| 2026-05-05 21:02 | 39.83940 | 39.50325 | 20797 ft | 360 kts | 5° |
| 2026-05-05 21:02 | 39.86435 | 39.50007 | 20323 ft | 360 kts | 345° |
| 2026-05-05 21:02 | 39.88813 | 39.49131 | 20021 ft | 352 kts | 351° |
| 2026-05-05 21:02 | 39.91244 | 39.49060 | 19857 ft | 350 kts | 11° |
| 2026-05-05 21:03 | 39.93514 | 39.50116 | 19598 ft | 350 kts | 33° |
| 2026-05-05 21:03 | 39.95329 | 39.52184 | 19340 ft | 344 kts | 55° |
| 2026-05-05 21:03 | 39.96389 | 39.54884 | 19083 ft | 338 kts | 76° |
| 2026-05-05 21:03 | 39.96613 | 39.57887 | 18834 ft | 333 kts | 95° |
| 2026-05-05 21:04 | 39.96245 | 39.60832 | 18575 ft | 330 kts | 105° |
| 2026-05-05 21:04 | 39.95544 | 39.63665 | 18310 ft | 326 kts | 113° |
| 2026-05-05 21:04 | 39.94589 | 39.66320 | 18058 ft | 324 kts | 118° |
| 2026-05-05 21:04 | 39.93383 | 39.68780 | 17794 ft | 322 kts | 131° |
| 2026-05-05 21:05 | 39.91677 | 39.70663 | 17542 ft | 320 kts | 149° |
| 2026-05-05 21:05 | 39.89716 | 39.71959 | 17308 ft | 321 kts | 153° |
| 2026-05-05 21:05 | 39.87697 | 39.73264 | 17052 ft | 320 kts | 152° |
| 2026-05-05 21:05 | 39.85735 | 39.74594 | 16800 ft | 318 kts | 151° |
| 2026-05-05 21:06 | 39.83793 | 39.75943 | 16545 ft | 316 kts | 151° |
| 2026-05-05 21:06 | 39.81860 | 39.77293 | 16423 ft | 312 kts | 151° |
| 2026-05-05 21:06 | 39.79969 | 39.78611 | 16504 ft | 311 kts | 151° |
| 2026-05-05 21:06 | 39.78040 | 39.79949 | 16714 ft | 316 kts | 151° |
| 2026-05-05 21:07 | 39.76058 | 39.81321 | 16589 ft | 325 kts | 151° |
| 2026-05-05 21:07 | 39.74081 | 39.82687 | 16330 ft | 320 kts | 151° |
| 2026-05-05 21:07 | 39.72128 | 39.84034 | 16074 ft | 314 kts | 151° |
| 2026-05-05 21:07 | 39.70230 | 39.85344 | 15825 ft | 310 kts | 151° |
| 2026-05-05 21:08 | 39.68331 | 39.86653 | 15576 ft | 311 kts | 151° |
| 2026-05-05 21:08 | 39.66415 | 39.87971 | 15325 ft | 311 kts | 151° |
| 2026-05-05 21:08 | 39.64491 | 39.89296 | 15071 ft | 310 kts | 151° |
| 2026-05-05 21:08 | 39.62602 | 39.90594 | 14819 ft | 307 kts | 151° |
| 2026-05-05 21:09 | 39.60747 | 39.91867 | 14569 ft | 304 kts | 151° |
| 2026-05-05 21:09 | 39.58879 | 39.93148 | 14314 ft | 303 kts | 151° |
| 2026-05-05 21:09 | 39.57018 | 39.94425 | 14068 ft | 303 kts | 151° |
| 2026-05-05 21:09 | 39.55118 | 39.95633 | 13814 ft | 302 kts | 156° |
| 2026-05-05 21:10 | 39.53087 | 39.96339 | 13549 ft | 303 kts | 174° |
| 2026-05-05 21:10 | 39.50989 | 39.96024 | 13305 ft | 308 kts | 195° |
| 2026-05-05 21:10 | 39.49068 | 39.94817 | 13059 ft | 310 kts | 210° |
| 2026-05-05 21:10 | 39.47390 | 39.93117 | 12680 ft | 310 kts | 221° |
| 2026-05-05 21:11 | 39.46096 | 39.90891 | 12230 ft | 312 kts | 242° |
| 2026-05-05 21:11 | 39.45510 | 39.88199 | 11820 ft | 309 kts | 263° |
| 2026-05-05 21:11 | 39.45536 | 39.85457 | 11378 ft | 306 kts | 276° |
| 2026-05-05 21:11 | 39.46033 | 39.82823 | 10940 ft | 302 kts | 294° |
| 2026-05-05 21:12 | 39.47181 | 39.80611 | 10521 ft | 296 kts | 319° |
| 2026-05-05 21:12 | 39.48889 | 39.79248 | 10187 ft | 283 kts | 343° |
| 2026-05-05 21:12 | 39.50740 | 39.78554 | 10021 ft | 267 kts | 349° |
| 2026-05-05 21:12 | 39.52523 | 39.78050 | 9764 ft | 259 kts | 352° |
| 2026-05-05 21:13 | 39.54282 | 39.77639 | 9380 ft | 257 kts | 353° |
| 2026-05-05 21:13 | 39.56037 | 39.77259 | 9059 ft | 253 kts | 354° |
| 2026-05-05 21:13 | 39.57743 | 39.76839 | 8803 ft | 246 kts | 345° |
| 2026-05-05 21:13 | 39.59311 | 39.76026 | 8445 ft | 244 kts | 336° |
| 2026-05-05 21:14 | 39.60832 | 39.75034 | 7978 ft | 244 kts | 334° |
| 2026-05-05 21:14 | 39.62326 | 39.74031 | 7695 ft | 236 kts | 334° |
| 2026-05-05 21:14 | 39.63752 | 39.73077 | 7454 ft | 227 kts | 335° |
| 2026-05-05 21:14 | 39.65137 | 39.72113 | 7154 ft | 222 kts | 326° |
| 2026-05-05 21:15 | 39.66130 | 39.70617 | 6794 ft | 222 kts | 291° |
| 2026-05-05 21:15 | 39.66488 | 39.68707 | 6505 ft | 217 kts | 284° |
| 2026-05-05 21:15 | 39.66913 | 39.66866 | 6126 ft | 210 kts | 290° |
| 2026-05-05 21:15 | 39.67410 | 39.65134 | 5747 ft | 200 kts | 292° |
| 2026-05-05 21:16 | 39.67897 | 39.63522 | 5551 ft | 183 kts | 292° |
| 2026-05-05 21:16 | 39.68344 | 39.62015 | 5310 ft | 177 kts | 291° |
| 2026-05-05 21:16 | 39.68772 | 39.60571 | 5000 ft | 168 kts | 291° |
| 2026-05-05 21:16 | 39.69186 | 39.59166 | 4629 ft | 163 kts | 291° |
| 2026-05-05 21:17 | 39.69597 | 39.57834 | 4513 ft | 154 kts | 295° |
| 2026-05-05 21:17 | 39.69967 | 39.56530 | 4299 ft | 153 kts | 288° |
| 2026-05-05 21:17 | 39.70366 | 39.55241 | 3955 ft | 154 kts | 291° |
| 2026-05-05 21:17 | 39.70739 | 39.53955 | 3796 ft | 149 kts | 291° |
| 2026-05-05 21:18 | 39.71046 | 39.52895 | 3793 ft | 91 kts | 292° |
| 2026-05-05 21:18 | 39.71221 | 39.52297 | 3793 ft | 57 kts | 291° |
| 2026-05-05 21:18 | 39.71283 | 39.52087 | 3793 ft | 10 kts | 290° |
| 2026-05-05 21:18 | 39.71323 | 39.52027 | 3793 ft | 8 kts | 350° |
| 2026-05-05 21:19 | 39.71380 | 39.52044 | 3793 ft | 8 kts | 19° |
| 2026-05-05 21:19 | 39.71432 | 39.52068 | 3793 ft | 7 kts | 19° |
| 2026-05-05 21:19 | 39.71482 | 39.52091 | 3793 ft | 7 kts | 21° |
| 2026-05-05 21:19 | 39.71530 | 39.52114 | 3793 ft | 6 kts | 17° |
| 2026-05-05 21:20 | 39.71567 | 39.52088 | 3793 ft | 6 kts | 305° |
| 2026-05-05 21:20 | 39.71604 | 39.52078 | 3793 ft | 4 kts | 9° |
| 2026-05-05 21:20 | 39.71634 | 39.52096 | 3793 ft | 4 kts | 27° |
| 2026-05-05 21:20 | 39.71657 | 39.52110 | 3793 ft | 0 kts | 24° |